»·PEaware :: SWA2313 KSAN-KLAX

SWA2313 :: KSAN-KLAX

FLIGHT INFORMATION

Flight Status: Arrived
Operator:
Southwest Airlines
More flights by this operator :: More flights under this callsign
Pilot: Walter P. (10403)
Aircraft: BOEING 737-300
(B733)
More flights by this aircraft type
Origin: KSAN San Diego Intl-Lindbergh
United States
Destination: KLAX Los Angeles Intl
United States
More flights between these airports :: More routes between these airports
Route: +CWARD2 SLI
File this flight plan on PilotEdge
Remarks: TEC route SANN6R
Altitude:
(Current/Filed)
10,000ft
Speed:
(Current/Filed)
350kts
Departed: 01-May-18 09:47 AM
Arrived: 01-May-18 10:18 AM
Distance/Time
Traveled:
95nm/0:31
Distance/Time
To Go:
Arrived

Flight Plot

Page will automatically refresh every two minutes.

Flight plan parsing failed; only flown route is shown


Map Options




Map Legend


Flown Route
Filed Route
Departure Airport
Arrival Airport
Navaid (VOR, NDB)
Fix

Horizontal Profiles

Position Reports

Time Latitude Longitude Heading Altitude Ground
Speed
01-May-18 09:26 32.733345 -117.197781 285 24ft 0kts
01-May-18 09:27 32.733345 -117.197781 285 24ft 0kts
01-May-18 09:28 32.733345 -117.197781 285 24ft 0kts
01-May-18 09:29 32.733345 -117.197781 285 24ft 0kts
01-May-18 09:30 32.733345 -117.197781 285 24ft 0kts
01-May-18 09:31 32.733345 -117.197781 285 24ft 0kts
01-May-18 09:31 32.733345 -117.197781 285 24ft 0kts
01-May-18 09:32 32.733345 -117.197781 285 24ft 0kts
01-May-18 09:33 32.733345 -117.197781 285 24ft 0kts
01-May-18 09:34 32.733345 -117.197781 285 24ft 0kts
01-May-18 09:36 32.733345 -117.197781 285 24ft 0kts
01-May-18 09:37 32.733345 -117.197781 285 24ft 0kts
01-May-18 09:37 32.733262 -117.197423 285 24ft 2kts
01-May-18 09:38 32.733003 -117.197289 14 24ft 0kts
01-May-18 09:39 32.733004 -117.197289 14 24ft 0kts
01-May-18 09:40 32.733004 -117.197289 14 24ft 0kts
01-May-18 09:41 32.733004 -117.197289 14 24ft 0kts
01-May-18 09:42 32.733004 -117.197289 14 24ft 0kts
01-May-18 09:43 32.734153 -117.196582 77 24ft 14kts
01-May-18 09:44 32.732429 -117.189244 104 22ft 30kts
01-May-18 09:45 32.730024 -117.179341 106 20ft 28kts
01-May-18 09:46 32.731592 -117.181801 284 21ft 93kts
01-May-18 09:47 32.748020 -117.231410 303 1935ft 200kts
01-May-18 09:48 32.781908 -117.288474 302 4640ft 228kts
01-May-18 09:49 32.821201 -117.352142 306 6983ft 269kts
01-May-18 09:50 32.864722 -117.419425 304 9733ft 274kts
01-May-18 09:51 32.905410 -117.482522 305 9945ft 266kts
01-May-18 09:52 32.947057 -117.547244 306 9948ft 266kts
01-May-18 09:53 32.989422 -117.613211 305 9945ft 267kts
01-May-18 09:54 33.032657 -117.680783 306 9952ft 266kts
01-May-18 09:55 33.077829 -117.744920 318 9952ft 268kts
01-May-18 09:56 33.131235 -117.798296 317 9949ft 268kts
01-May-18 09:57 33.178577 -117.846242 317 9949ft 268kts
01-May-18 09:58 33.242830 -117.875448 344 9927ft 275kts
01-May-18 09:59 33.308233 -117.891134 345 9922ft 274kts
01-May-18 10:00 33.374754 -117.907047 344 9924ft 275kts
01-May-18 10:01 33.440081 -117.929574 339 9951ft 275kts
01-May-18 10:02 33.511869 -117.955661 340 7787ft 291kts
01-May-18 10:03 33.572387 -117.977657 339 7029ft 277kts
01-May-18 10:04 33.635516 -118.000623 340 7002ft 282kts
01-May-18 10:05 33.701482 -118.024657 342 6966ft 275kts
01-May-18 10:06 33.769087 -118.046278 351 6429ft 271kts
01-May-18 10:07 33.834965 -118.057725 351 5571ft 245kts
01-May-18 10:08 33.894940 -118.067299 351 5061ft 224kts
01-May-18 10:09 33.951225 -118.076106 351 5107ft 223kts
01-May-18 10:10 33.981052 -118.118443 273 4274ft 220kts
01-May-18 10:11 33.976651 -118.169810 262 3955ft 189kts
01-May-18 10:12 33.970321 -118.219154 265 3150ft 191kts
01-May-18 10:13 33.965545 -118.271336 266 2291ft 200kts
01-May-18 10:14 33.959809 -118.330319 261 1330ft 188kts
01-May-18 10:15 33.954314 -118.383159 256 449ft 147kts
01-May-18 10:16 33.949931 -118.422939 262 112ft 51kts
01-May-18 10:17 33.948431 -118.426824 221 112ft 5kts
01-May-18 10:18 33.946475 -118.427649 134 112ft 0kts
01-May-18 10:19 33.946799 -118.422628 82 112ft 28kts
01-May-18 10:20 33.948035 -118.411974 84 112ft 37kts
01-May-18 10:21 33.948554 -118.402851 163 112ft 18kts
01-May-18 10:22 33.947036 -118.403487 226 112ft 0kts

Navigation Log

Ident Type
Flight plan parsing failed, navigation log unavailable